Lawn Hill, Iowa
Current Conditions -  °F | °C
As of 8:53 PM on Friday 21 Nov 2014 (Local Time) from KMIW Reporting Station
Overcast Overcast  
Wind Chill: 23°   Ceiling: 1800
Heat Index: 33°   Visibility: 10mi
Dew Point: 24°   Wind: 15mph
Humidity: 70%   Direction: 180°S
Pressure: 30.06"   Gusts: NA
Location:  42.2453°N, 93.1762°W
Report Text: KMIW 220253Z AUTO 18013KT 10SM OVC018 01/M04 A3006 RMK AO2 SLP192 T00061044 56016
Loading
Personal Weather Stations






























Interactive Weather Map New forecast layout! Learn more

10-Day Weather Forecast

Advertisements
Track Severe Weather on mobile